Seahouses, United Kingdom
Current Conditions -  °F | °C
As of 6:50 AM on Monday 24 Nov 2014 (Local Time) from EGQM Reporting Station
Clear Clear  
Wind Chill: 37°   Ceiling: Unl
Heat Index: 45°   Visibility: 6mi
Dew Point: 39°   Wind: 18mph
Humidity: 81%   Direction: 270°W
Pressure: 30.12"   Gusts: NA
Location:  55.58°N, 1.65°W
Report Text: EGQM 240650Z AUTO 27016KT 9999 NCD 07/04 Q1020
Loading
Personal Weather Stations






























Interactive Weather Map New forecast layout! Learn more

10-Day Weather Forecast

Advertisements
Track Severe Weather on mobile